sensor_id;sensor_type;location;lat;lon;timestamp;P1;durP1;ratioP1;P2;durP2;ratioP2
37367;SDS011;23240;43.210;27.910;2022-09-27T00:02:14;7.22;;;3.45;;
37367;SDS011;23240;43.210;27.910;2022-09-27T00:04:40;6.80;;;3.40;;
37367;SDS011;23240;43.210;27.910;2022-09-27T00:07:05;8.90;;;3.35;;
37367;SDS011;23240;43.210;27.910;2022-09-27T00:09:31;7.05;;;3.10;;
37367;SDS011;23240;43.210;27.910;2022-09-27T00:11:57;4.45;;;3.40;;
37367;SDS011;23240;43.210;27.910;2022-09-27T00:14:22;4.35;;;3.05;;
37367;SDS011;23240;43.210;27.910;2022-09-27T00:16:48;5.68;;;2.95;;
37367;SDS011;23240;43.210;27.910;2022-09-27T00:19:15;6.55;;;3.67;;
37367;SDS011;23240;43.210;27.910;2022-09-27T00:21:43;5.68;;;2.88;;
37367;SDS011;23240;43.210;27.910;2022-09-27T00:24:11;4.32;;;2.88;;
37367;SDS011;23240;43.210;27.910;2022-09-27T00:26:38;5.65;;;3.25;;
37367;SDS011;23240;43.210;27.910;2022-09-27T00:29:03;5.40;;;3.25;;
37367;SDS011;23240;43.210;27.910;2022-09-27T00:31:29;5.18;;;3.30;;
37367;SDS011;23240;43.210;27.910;2022-09-27T00:33:56;5.57;;;3.30;;
37367;SDS011;23240;43.210;27.910;2022-09-27T00:36:24;3.50;;;2.72;;
37367;SDS011;23240;43.210;27.910;2022-09-27T00:38:51;5.13;;;3.13;;
37367;SDS011;23240;43.210;27.910;2022-09-27T00:43:52;9.85;;;3.72;;
37367;SDS011;23240;43.210;27.910;2022-09-27T00:51:41;4.13;;;2.60;;
37367;SDS011;23240;43.210;27.910;2022-09-27T00:54:13;7.13;;;3.17;;
37367;SDS011;23240;43.210;27.910;2022-09-27T00:56:41;5.78;;;3.03;;
37367;SDS011;23240;43.210;27.910;2022-09-27T00:59:51;6.35;;;3.40;;
37367;SDS011;23240;43.210;27.910;2022-09-27T01:02:03;6.63;;;3.20;;
37367;SDS011;23240;43.210;27.910;2022-09-27T01:04:31;8.95;;;3.65;;
37367;SDS011;23240;43.210;27.910;2022-09-27T01:06:57;5.60;;;3.20;;
37367;SDS011;23240;43.210;27.910;2022-09-27T01:09:24;4.65;;;2.90;;
37367;SDS011;23240;43.210;27.910;2022-09-27T01:11:53;4.00;;;2.58;;
37367;SDS011;23240;43.210;27.910;2022-09-27T01:17:25;6.90;;;3.38;;
37367;SDS011;23240;43.210;27.910;2022-09-27T01:34:03;5.80;;;2.90;;
37367;SDS011;23240;43.210;27.910;2022-09-27T01:47:31;4.28;;;2.40;;
37367;SDS011;23240;43.210;27.910;2022-09-27T01:50:08;7.05;;;3.65;;
37367;SDS011;23240;43.210;27.910;2022-09-27T01:52:42;4.53;;;2.88;;
37367;SDS011;23240;43.210;27.910;2022-09-27T01:55:20;4.57;;;3.05;;
37367;SDS011;23240;43.210;27.910;2022-09-27T01:57:55;5.30;;;3.15;;
37367;SDS011;23240;43.210;27.910;2022-09-27T02:00:25;6.53;;;2.95;;
37367;SDS011;23240;43.210;27.910;2022-09-27T02:02:55;6.38;;;3.25;;
37367;SDS011;23240;43.210;27.910;2022-09-27T02:05:33;8.77;;;3.17;;
37367;SDS011;23240;43.210;27.910;2022-09-27T02:08:05;5.35;;;3.15;;
37367;SDS011;23240;43.210;27.910;2022-09-27T02:10:40;6.78;;;3.08;;
37367;SDS011;23240;43.210;27.910;2022-09-27T02:13:14;3.63;;;2.35;;
37367;SDS011;23240;43.210;27.910;2022-09-27T02:15:51;3.28;;;2.40;;
37367;SDS011;23240;43.210;27.910;2022-09-27T02:18:36;4.60;;;2.70;;
37367;SDS011;23240;43.210;27.910;2022-09-27T02:21:13;4.85;;;2.95;;
37367;SDS011;23240;43.210;27.910;2022-09-27T02:23:45;4.38;;;2.50;;
37367;SDS011;23240;43.210;27.910;2022-09-27T02:26:36;3.92;;;2.60;;
37367;SDS011;23240;43.210;27.910;2022-09-27T02:31:37;5.18;;;3.13;;
37367;SDS011;23240;43.210;27.910;2022-09-27T02:34:04;5.10;;;2.75;;
37367;SDS011;23240;43.210;27.910;2022-09-27T02:36:51;5.35;;;2.65;;
37367;SDS011;23240;43.210;27.910;2022-09-27T02:39:20;6.90;;;3.42;;
37367;SDS011;23240;43.210;27.910;2022-09-27T02:41:46;6.18;;;3.28;;
37367;SDS011;23240;43.210;27.910;2022-09-27T02:44:12;6.13;;;3.22;;
37367;SDS011;23240;43.210;27.910;2022-09-27T03:00:47;7.65;;;3.47;;
37367;SDS011;23240;43.210;27.910;2022-09-27T03:03:26;5.00;;;3.20;;
37367;SDS011;23240;43.210;27.910;2022-09-27T03:08:30;5.30;;;2.88;;
37367;SDS011;23240;43.210;27.910;2022-09-27T03:10:56;5.10;;;3.25;;
37367;SDS011;23240;43.210;27.910;2022-09-27T03:13:21;8.60;;;3.10;;
37367;SDS011;23240;43.210;27.910;2022-09-27T03:15:47;6.78;;;3.60;;
37367;SDS011;23240;43.210;27.910;2022-09-27T03:18:12;7.95;;;3.92;;
37367;SDS011;23240;43.210;27.910;2022-09-27T03:20:38;6.18;;;3.30;;
37367;SDS011;23240;43.210;27.910;2022-09-27T03:23:03;8.45;;;3.42;;
37367;SDS011;23240;43.210;27.910;2022-09-27T03:25:29;4.88;;;3.08;;
37367;SDS011;23240;43.210;27.910;2022-09-27T03:27:54;8.57;;;2.88;;
37367;SDS011;23240;43.210;27.910;2022-09-27T03:30:20;6.55;;;3.20;;
37367;SDS011;23240;43.210;27.910;2022-09-27T03:32:45;7.35;;;3.90;;
37367;SDS011;23240;43.210;27.910;2022-09-27T03:35:11;10.55;;;3.33;;
37367;SDS011;23240;43.210;27.910;2022-09-27T03:37:38;5.40;;;2.97;;
37367;SDS011;23240;43.210;27.910;2022-09-27T03:40:05;5.22;;;3.35;;
37367;SDS011;23240;43.210;27.910;2022-09-27T03:42:32;6.28;;;3.25;;
37367;SDS011;23240;43.210;27.910;2022-09-27T03:44:58;4.63;;;3.00;;
37367;SDS011;23240;43.210;27.910;2022-09-27T03:47:23;6.15;;;3.47;;
37367;SDS011;23240;43.210;27.910;2022-09-27T03:49:49;9.25;;;3.35;;
37367;SDS011;23240;43.210;27.910;2022-09-27T03:52:14;5.22;;;3.17;;
37367;SDS011;23240;43.210;27.910;2022-09-27T03:54:42;6.00;;;3.08;;
37367;SDS011;23240;43.210;27.910;2022-09-27T03:57:08;4.80;;;2.90;;
37367;SDS011;23240;43.210;27.910;2022-09-27T03:59:33;6.85;;;3.58;;
37367;SDS011;23240;43.210;27.910;2022-09-27T04:01:59;6.93;;;3.53;;
37367;SDS011;23240;43.210;27.910;2022-09-27T04:04:24;5.05;;;2.95;;
37367;SDS011;23240;43.210;27.910;2022-09-27T04:06:50;8.88;;;4.13;;
37367;SDS011;23240;43.210;27.910;2022-09-27T04:09:15;6.65;;;2.97;;
37367;SDS011;23240;43.210;27.910;2022-09-27T04:11:41;9.38;;;4.10;;
37367;SDS011;23240;43.210;27.910;2022-09-27T04:14:06;6.03;;;3.40;;
37367;SDS011;23240;43.210;27.910;2022-09-27T04:16:33;6.95;;;3.35;;
37367;SDS011;23240;43.210;27.910;2022-09-27T04:18:59;10.43;;;3.75;;
37367;SDS011;23240;43.210;27.910;2022-09-27T04:21:26;7.53;;;4.00;;
37367;SDS011;23240;43.210;27.910;2022-09-27T04:23:52;9.10;;;4.38;;
37367;SDS011;23240;43.210;27.910;2022-09-27T04:26:18;8.15;;;3.83;;
37367;SDS011;23240;43.210;27.910;2022-09-27T04:28:45;8.15;;;4.40;;
37367;SDS011;23240;43.210;27.910;2022-09-27T04:31:11;7.32;;;3.80;;
37367;SDS011;23240;43.210;27.910;2022-09-27T04:33:36;15.52;;;4.60;;
37367;SDS011;23240;43.210;27.910;2022-09-27T04:36:02;7.78;;;3.28;;
37367;SDS011;23240;43.210;27.910;2022-09-27T04:38:46;7.45;;;3.60;;
37367;SDS011;23240;43.210;27.910;2022-09-27T04:41:12;7.80;;;3.60;;
37367;SDS011;23240;43.210;27.910;2022-09-27T04:43:38;8.90;;;4.43;;
37367;SDS011;23240;43.210;27.910;2022-09-27T04:46:04;9.15;;;4.25;;
37367;SDS011;23240;43.210;27.910;2022-09-27T04:48:29;13.40;;;5.10;;
37367;SDS011;23240;43.210;27.910;2022-09-27T04:50:59;12.40;;;5.28;;
37367;SDS011;23240;43.210;27.910;2022-09-27T04:53:26;9.38;;;4.38;;
37367;SDS011;23240;43.210;27.910;2022-09-27T04:55:54;12.45;;;5.10;;
37367;SDS011;23240;43.210;27.910;2022-09-27T04:58:20;9.45;;;4.22;;
37367;SDS011;23240;43.210;27.910;2022-09-27T05:00:46;11.15;;;4.50;;
37367;SDS011;23240;43.210;27.910;2022-09-27T05:03:13;11.00;;;5.07;;
37367;SDS011;23240;43.210;27.910;2022-09-27T05:05:39;9.93;;;4.72;;
37367;SDS011;23240;43.210;27.910;2022-09-27T05:08:05;10.48;;;5.07;;
37367;SDS011;23240;43.210;27.910;2022-09-27T05:10:31;8.70;;;4.10;;
37367;SDS011;23240;43.210;27.910;2022-09-27T05:12:57;8.07;;;3.88;;
37367;SDS011;23240;43.210;27.910;2022-09-27T05:15:22;9.05;;;4.18;;
37367;SDS011;23240;43.210;27.910;2022-09-27T05:17:51;9.98;;;5.07;;
37367;SDS011;23240;43.210;27.910;2022-09-27T05:20:17;8.35;;;3.85;;
37367;SDS011;23240;43.210;27.910;2022-09-27T05:22:43;8.50;;;4.35;;
37367;SDS011;23240;43.210;27.910;2022-09-27T05:25:09;11.30;;;4.30;;
37367;SDS011;23240;43.210;27.910;2022-09-27T05:27:34;8.25;;;3.80;;
37367;SDS011;23240;43.210;27.910;2022-09-27T05:30:00;9.88;;;4.85;;
37367;SDS011;23240;43.210;27.910;2022-09-27T05:32:26;8.90;;;4.05;;
37367;SDS011;23240;43.210;27.910;2022-09-27T05:34:52;9.98;;;4.85;;
37367;SDS011;23240;43.210;27.910;2022-09-27T05:37:18;8.20;;;4.00;;
37367;SDS011;23240;43.210;27.910;2022-09-27T05:39:44;7.68;;;4.25;;
37367;SDS011;23240;43.210;27.910;2022-09-27T05:42:10;10.45;;;4.13;;
37367;SDS011;23240;43.210;27.910;2022-09-27T05:44:39;10.68;;;4.20;;
37367;SDS011;23240;43.210;27.910;2022-09-27T05:47:05;7.57;;;3.95;;
37367;SDS011;23240;43.210;27.910;2022-09-27T05:49:31;8.73;;;3.85;;
37367;SDS011;23240;43.210;27.910;2022-09-27T05:51:57;8.65;;;3.83;;
37367;SDS011;23240;43.210;27.910;2022-09-27T05:54:22;6.13;;;2.95;;
37367;SDS011;23240;43.210;27.910;2022-09-27T05:56:48;6.05;;;3.55;;
37367;SDS011;23240;43.210;27.910;2022-09-27T05:59:15;4.93;;;3.10;;
37367;SDS011;23240;43.210;27.910;2022-09-27T06:01:40;7.80;;;3.50;;
37367;SDS011;23240;43.210;27.910;2022-09-27T06:04:06;5.60;;;2.85;;
37367;SDS011;23240;43.210;27.910;2022-09-27T06:06:34;8.23;;;3.80;;
37367;SDS011;23240;43.210;27.910;2022-09-27T06:09:00;6.45;;;3.00;;
37367;SDS011;23240;43.210;27.910;2022-09-27T06:11:26;7.38;;;3.40;;
37367;SDS011;23240;43.210;27.910;2022-09-27T06:13:52;7.28;;;3.30;;
37367;SDS011;23240;43.210;27.910;2022-09-27T06:16:18;7.57;;;3.83;;
37367;SDS011;23240;43.210;27.910;2022-09-27T06:18:43;4.72;;;2.97;;
37367;SDS011;23240;43.210;27.910;2022-09-27T06:21:09;5.68;;;3.03;;
37367;SDS011;23240;43.210;27.910;2022-09-27T06:23:35;3.38;;;2.42;;
37367;SDS011;23240;43.210;27.910;2022-09-27T06:26:01;4.80;;;2.95;;
37367;SDS011;23240;43.210;27.910;2022-09-27T06:28:28;7.32;;;3.03;;
37367;SDS011;23240;43.210;27.910;2022-09-27T06:30:54;4.82;;;2.63;;
37367;SDS011;23240;43.210;27.910;2022-09-27T06:33:20;2.88;;;2.55;;
37367;SDS011;23240;43.210;27.910;2022-09-27T06:35:46;5.75;;;3.40;;
37367;SDS011;23240;43.210;27.910;2022-09-27T06:38:14;4.28;;;2.90;;
37367;SDS011;23240;43.210;27.910;2022-09-27T06:40:41;8.23;;;3.25;;
37367;SDS011;23240;43.210;27.910;2022-09-27T06:43:11;5.88;;;3.25;;
37367;SDS011;23240;43.210;27.910;2022-09-27T06:45:41;9.50;;;3.28;;
37367;SDS011;23240;43.210;27.910;2022-09-27T06:48:08;6.40;;;3.63;;
37367;SDS011;23240;43.210;27.910;2022-09-27T06:50:37;5.93;;;2.75;;
37367;SDS011;23240;43.210;27.910;2022-09-27T06:53:04;6.50;;;2.80;;
37367;SDS011;23240;43.210;27.910;2022-09-27T06:55:31;3.80;;;2.33;;
37367;SDS011;23240;43.210;27.910;2022-09-27T06:57:57;4.10;;;2.88;;
37367;SDS011;23240;43.210;27.910;2022-09-27T07:00:43;3.97;;;2.80;;
37367;SDS011;23240;43.210;27.910;2022-09-27T07:03:12;3.83;;;2.47;;
37367;SDS011;23240;43.210;27.910;2022-09-27T07:05:38;6.28;;;2.78;;
37367;SDS011;23240;43.210;27.910;2022-09-27T07:08:06;4.88;;;2.75;;
37367;SDS011;23240;43.210;27.910;2022-09-27T07:10:37;3.75;;;2.42;;
37367;SDS011;23240;43.210;27.910;2022-09-27T07:13:07;3.70;;;2.65;;
37367;SDS011;23240;43.210;27.910;2022-09-27T07:15:34;4.07;;;2.42;;
37367;SDS011;23240;43.210;27.910;2022-09-27T07:18:01;3.15;;;2.80;;
37367;SDS011;23240;43.210;27.910;2022-09-27T07:20:27;7.53;;;2.88;;
37367;SDS011;23240;43.210;27.910;2022-09-27T07:22:55;4.20;;;2.75;;
37367;SDS011;23240;43.210;27.910;2022-09-27T07:25:22;5.20;;;2.80;;
37367;SDS011;23240;43.210;27.910;2022-09-27T07:27:48;3.30;;;2.40;;
37367;SDS011;23240;43.210;27.910;2022-09-27T07:30:14;4.45;;;2.90;;
37367;SDS011;23240;43.210;27.910;2022-09-27T07:32:41;3.70;;;2.70;;
37367;SDS011;23240;43.210;27.910;2022-09-27T07:35:07;7.60;;;3.15;;
37367;SDS011;23240;43.210;27.910;2022-09-27T07:37:35;4.97;;;2.75;;
37367;SDS011;23240;43.210;27.910;2022-09-27T07:40:02;2.38;;;2.17;;
37367;SDS011;23240;43.210;27.910;2022-09-27T07:42:33;6.25;;;3.17;;
37367;SDS011;23240;43.210;27.910;2022-09-27T07:45:02;7.47;;;3.75;;
37367;SDS011;23240;43.210;27.910;2022-09-27T07:47:28;2.95;;;2.20;;
37367;SDS011;23240;43.210;27.910;2022-09-27T07:49:54;2.97;;;1.98;;
37367;SDS011;23240;43.210;27.910;2022-09-27T07:52:20;3.35;;;2.13;;
37367;SDS011;23240;43.210;27.910;2022-09-27T07:54:46;4.10;;;2.38;;
37367;SDS011;23240;43.210;27.910;2022-09-27T07:57:13;4.35;;;2.78;;
37367;SDS011;23240;43.210;27.910;2022-09-27T07:59:39;2.38;;;2.13;;
37367;SDS011;23240;43.210;27.910;2022-09-27T08:02:05;3.47;;;2.40;;
37367;SDS011;23240;43.210;27.910;2022-09-27T08:04:31;4.97;;;2.47;;
37367;SDS011;23240;43.210;27.910;2022-09-27T08:06:57;3.35;;;2.08;;
37367;SDS011;23240;43.210;27.910;2022-09-27T08:09:22;4.25;;;2.63;;
37367;SDS011;23240;43.210;27.910;2022-09-27T08:11:50;4.78;;;2.45;;
37367;SDS011;23240;43.210;27.910;2022-09-27T08:14:15;4.50;;;2.65;;
37367;SDS011;23240;43.210;27.910;2022-09-27T08:16:42;2.72;;;2.08;;
37367;SDS011;23240;43.210;27.910;2022-09-27T08:19:08;2.75;;;2.33;;
37367;SDS011;23240;43.210;27.910;2022-09-27T08:21:35;3.35;;;2.17;;
37367;SDS011;23240;43.210;27.910;2022-09-27T08:24:00;11.75;;;2.42;;
37367;SDS011;23240;43.210;27.910;2022-09-27T08:26:26;2.97;;;2.58;;
37367;SDS011;23240;43.210;27.910;2022-09-27T08:28:52;2.58;;;2.05;;
37367;SDS011;23240;43.210;27.910;2022-09-27T08:31:18;3.85;;;2.42;;
37367;SDS011;23240;43.210;27.910;2022-09-27T08:33:48;2.53;;;1.92;;
37367;SDS011;23240;43.210;27.910;2022-09-27T08:36:17;2.15;;;1.85;;
37367;SDS011;23240;43.210;27.910;2022-09-27T08:38:46;3.80;;;2.50;;
37367;SDS011;23240;43.210;27.910;2022-09-27T08:49:23;4.70;;;2.83;;
37367;SDS011;23240;43.210;27.910;2022-09-27T08:51:56;4.35;;;2.67;;
37367;SDS011;23240;43.210;27.910;2022-09-27T08:54:24;5.38;;;2.78;;
37367;SDS011;23240;43.210;27.910;2022-09-27T08:56:56;7.50;;;3.70;;
37367;SDS011;23240;43.210;27.910;2022-09-27T08:59:28;5.72;;;2.40;;
37367;SDS011;23240;43.210;27.910;2022-09-27T09:01:58;2.95;;;2.00;;
37367;SDS011;23240;43.210;27.910;2022-09-27T09:04:25;2.60;;;2.25;;
37367;SDS011;23240;43.210;27.910;2022-09-27T09:15:19;2.75;;;2.10;;
37367;SDS011;23240;43.210;27.910;2022-09-27T09:20:52;3.08;;;2.08;;
37367;SDS011;23240;43.210;27.910;2022-09-27T09:29:12;3.88;;;2.30;;
37367;SDS011;23240;43.210;27.910;2022-09-27T09:34:48;4.10;;;2.40;;
37367;SDS011;23240;43.210;27.910;2022-09-27T09:37:38;4.40;;;2.80;;
37367;SDS011;23240;43.210;27.910;2022-09-27T09:42:51;3.58;;;2.15;;
37367;SDS011;23240;43.210;27.910;2022-09-27T09:45:29;5.40;;;2.80;;
37367;SDS011;23240;43.210;27.910;2022-09-27T09:50:30;4.00;;;2.53;;
37367;SDS011;23240;43.210;27.910;2022-09-27T09:56:01;5.35;;;2.88;;
37367;SDS011;23240;43.210;27.910;2022-09-27T09:58:42;3.30;;;2.58;;
37367;SDS011;23240;43.210;27.910;2022-09-27T10:01:17;4.53;;;2.45;;
37367;SDS011;23240;43.210;27.910;2022-09-27T10:03:46;4.43;;;2.95;;
37367;SDS011;23240;43.210;27.910;2022-09-27T10:06:12;2.88;;;2.55;;
37367;SDS011;23240;43.210;27.910;2022-09-27T10:08:40;2.45;;;2.25;;
37367;SDS011;23240;43.210;27.910;2022-09-27T10:11:06;6.10;;;2.78;;
37367;SDS011;23240;43.210;27.910;2022-09-27T10:13:45;3.60;;;2.28;;
37367;SDS011;23240;43.210;27.910;2022-09-27T10:16:12;3.45;;;2.60;;
37367;SDS011;23240;43.210;27.910;2022-09-27T10:18:40;6.05;;;2.83;;
37367;SDS011;23240;43.210;27.910;2022-09-27T10:21:28;2.15;;;1.65;;
37367;SDS011;23240;43.210;27.910;2022-09-27T10:26:33;4.13;;;2.80;;
37367;SDS011;23240;43.210;27.910;2022-09-27T10:29:16;2.25;;;2.05;;
37367;SDS011;23240;43.210;27.910;2022-09-27T10:31:48;2.92;;;2.05;;
37367;SDS011;23240;43.210;27.910;2022-09-27T10:34:20;5.05;;;2.83;;
37367;SDS011;23240;43.210;27.910;2022-09-27T10:39:43;3.63;;;2.28;;
37367;SDS011;23240;43.210;27.910;2022-09-27T10:42:20;2.58;;;1.98;;
37367;SDS011;23240;43.210;27.910;2022-09-27T10:44:45;5.20;;;2.88;;
37367;SDS011;23240;43.210;27.910;2022-09-27T10:47:12;2.88;;;2.13;;
37367;SDS011;23240;43.210;27.910;2022-09-27T10:49:46;5.93;;;2.95;;
37367;SDS011;23240;43.210;27.910;2022-09-27T10:52:17;5.60;;;2.50;;
37367;SDS011;23240;43.210;27.910;2022-09-27T10:54:58;4.43;;;2.45;;
37367;SDS011;23240;43.210;27.910;2022-09-27T10:57:47;7.60;;;2.38;;
37367;SDS011;23240;43.210;27.910;2022-09-27T11:02:52;5.82;;;2.72;;
37367;SDS011;23240;43.210;27.910;2022-09-27T11:07:52;4.15;;;2.53;;
37367;SDS011;23240;43.210;27.910;2022-09-27T11:13:26;3.90;;;2.80;;
37367;SDS011;23240;43.210;27.910;2022-09-27T11:24:24;5.35;;;2.10;;
37367;SDS011;23240;43.210;27.910;2022-09-27T11:30:15;2.17;;;2.00;;
37367;SDS011;23240;43.210;27.910;2022-09-27T11:35:48;3.03;;;2.45;;
37367;SDS011;23240;43.210;27.910;2022-09-27T11:43:46;3.83;;;2.83;;
37367;SDS011;23240;43.210;27.910;2022-09-27T11:46:23;4.65;;;2.95;;
37367;SDS011;23240;43.210;27.910;2022-09-27T12:02:55;6.60;;;3.42;;
37367;SDS011;23240;43.210;27.910;2022-09-27T12:14:01;4.97;;;3.05;;
37367;SDS011;23240;43.210;27.910;2022-09-27T12:16:30;7.00;;;3.00;;
37367;SDS011;23240;43.210;27.910;2022-09-27T12:18:57;3.55;;;2.67;;
37367;SDS011;23240;43.210;27.910;2022-09-27T12:21:25;3.45;;;2.80;;
37367;SDS011;23240;43.210;27.910;2022-09-27T12:23:54;4.82;;;2.88;;
37367;SDS011;23240;43.210;27.910;2022-09-27T12:26:29;5.18;;;3.08;;
37367;SDS011;23240;43.210;27.910;2022-09-27T12:29:19;5.43;;;3.25;;
37367;SDS011;23240;43.210;27.910;2022-09-27T12:37:23;3.60;;;2.60;;
37367;SDS011;23240;43.210;27.910;2022-09-27T12:42:47;5.68;;;3.13;;
37367;SDS011;23240;43.210;27.910;2022-09-27T12:51:10;4.45;;;2.80;;
37367;SDS011;23240;43.210;27.910;2022-09-27T12:59:40;4.25;;;3.05;;
37367;SDS011;23240;43.210;27.910;2022-09-27T13:12:47;2.78;;;2.13;;
37367;SDS011;23240;43.210;27.910;2022-09-27T13:15:37;2.17;;;1.98;;
37367;SDS011;23240;43.210;27.910;2022-09-27T13:18:04;4.43;;;2.60;;
37367;SDS011;23240;43.210;27.910;2022-09-27T13:23:00;4.97;;;2.80;;
37367;SDS011;23240;43.210;27.910;2022-09-27T13:25:53;3.13;;;2.30;;
37367;SDS011;23240;43.210;27.910;2022-09-27T13:33:44;8.38;;;3.20;;
37367;SDS011;23240;43.210;27.910;2022-09-27T13:39:03;5.50;;;2.90;;
37367;SDS011;23240;43.210;27.910;2022-09-27T13:46:55;4.80;;;3.00;;
37367;SDS011;23240;43.210;27.910;2022-09-27T13:52:25;6.25;;;3.40;;
37367;SDS011;23240;43.210;27.910;2022-09-27T13:54:57;8.20;;;4.13;;
37367;SDS011;23240;43.210;27.910;2022-09-27T14:00:02;4.78;;;2.88;;
37367;SDS011;23240;43.210;27.910;2022-09-27T14:02:31;5.72;;;3.22;;
37367;SDS011;23240;43.210;27.910;2022-09-27T14:05:03;3.92;;;2.78;;
37367;SDS011;23240;43.210;27.910;2022-09-27T14:07:39;5.82;;;3.00;;
37367;SDS011;23240;43.210;27.910;2022-09-27T14:10:11;11.23;;;3.20;;
37367;SDS011;23240;43.210;27.910;2022-09-27T14:12:38;4.55;;;3.20;;
37367;SDS011;23240;43.210;27.910;2022-09-27T14:15:11;5.45;;;3.33;;
37367;SDS011;23240;43.210;27.910;2022-09-27T14:17:43;4.68;;;2.90;;
37367;SDS011;23240;43.210;27.910;2022-09-27T14:20:31;6.40;;;3.35;;
37367;SDS011;23240;43.210;27.910;2022-09-27T14:23:25;4.00;;;3.10;;
37367;SDS011;23240;43.210;27.910;2022-09-27T14:25:51;7.57;;;3.72;;
37367;SDS011;23240;43.210;27.910;2022-09-27T14:28:28;4.47;;;2.83;;
37367;SDS011;23240;43.210;27.910;2022-09-27T14:33:43;3.38;;;2.55;;
37367;SDS011;23240;43.210;27.910;2022-09-27T14:36:51;2.78;;;2.45;;
37367;SDS011;23240;43.210;27.910;2022-09-27T14:39:22;4.45;;;2.72;;
37367;SDS011;23240;43.210;27.910;2022-09-27T14:41:59;3.95;;;2.22;;
37367;SDS011;23240;43.210;27.910;2022-09-27T14:44:24;4.68;;;2.65;;
37367;SDS011;23240;43.210;27.910;2022-09-27T14:47:07;3.88;;;2.60;;
37367;SDS011;23240;43.210;27.910;2022-09-27T14:49:51;3.08;;;2.05;;
37367;SDS011;23240;43.210;27.910;2022-09-27T14:52:21;13.03;;;3.10;;
37367;SDS011;23240;43.210;27.910;2022-09-27T14:54:56;3.67;;;2.42;;
37367;SDS011;23240;43.210;27.910;2022-09-27T14:57:23;6.80;;;2.67;;
37367;SDS011;23240;43.210;27.910;2022-09-27T14:59:51;4.55;;;3.00;;
37367;SDS011;23240;43.210;27.910;2022-09-27T15:02:17;4.72;;;2.35;;
37367;SDS011;23240;43.210;27.910;2022-09-27T15:04:46;7.15;;;3.55;;
37367;SDS011;23240;43.210;27.910;2022-09-27T15:07:12;6.10;;;3.03;;
37367;SDS011;23240;43.210;27.910;2022-09-27T15:09:41;4.10;;;2.72;;
37367;SDS011;23240;43.210;27.910;2022-09-27T15:12:10;7.82;;;2.95;;
37367;SDS011;23240;43.210;27.910;2022-09-27T15:14:40;2.90;;;2.22;;
37367;SDS011;23240;43.210;27.910;2022-09-27T15:17:14;5.03;;;2.72;;
37367;SDS011;23240;43.210;27.910;2022-09-27T15:19:54;3.55;;;2.40;;
37367;SDS011;23240;43.210;27.910;2022-09-27T15:22:22;3.92;;;2.55;;
37367;SDS011;23240;43.210;27.910;2022-09-27T15:25:19;3.15;;;2.60;;
37367;SDS011;23240;43.210;27.910;2022-09-27T15:27:52;5.20;;;2.88;;
37367;SDS011;23240;43.210;27.910;2022-09-27T15:30:20;2.83;;;1.92;;
37367;SDS011;23240;43.210;27.910;2022-09-27T15:32:54;6.03;;;2.80;;
37367;SDS011;23240;43.210;27.910;2022-09-27T15:35:22;4.40;;;2.65;;
37367;SDS011;23240;43.210;27.910;2022-09-27T15:37:50;4.45;;;2.80;;
37367;SDS011;23240;43.210;27.910;2022-09-27T15:42:53;8.55;;;3.78;;
37367;SDS011;23240;43.210;27.910;2022-09-27T15:45:34;3.65;;;2.53;;
37367;SDS011;23240;43.210;27.910;2022-09-27T15:48:33;7.32;;;3.13;;
37367;SDS011;23240;43.210;27.910;2022-09-27T15:50:52;4.85;;;2.58;;
37367;SDS011;23240;43.210;27.910;2022-09-27T15:55:59;4.38;;;2.45;;
37367;SDS011;23240;43.210;27.910;2022-09-27T15:58:30;4.38;;;2.47;;
37367;SDS011;23240;43.210;27.910;2022-09-27T16:01:00;5.50;;;2.88;;
37367;SDS011;23240;43.210;27.910;2022-09-27T16:03:27;3.15;;;2.25;;
37367;SDS011;23240;43.210;27.910;2022-09-27T16:05:57;6.18;;;2.33;;
37367;SDS011;23240;43.210;27.910;2022-09-27T16:08:25;7.88;;;2.85;;
37367;SDS011;23240;43.210;27.910;2022-09-27T16:10:52;4.90;;;2.72;;
37367;SDS011;23240;43.210;27.910;2022-09-27T16:13:20;2.97;;;2.58;;
37367;SDS011;23240;43.210;27.910;2022-09-27T16:15:46;5.68;;;2.97;;
37367;SDS011;23240;43.210;27.910;2022-09-27T16:18:12;7.88;;;2.88;;
37367;SDS011;23240;43.210;27.910;2022-09-27T16:20:38;7.00;;;3.00;;
37367;SDS011;23240;43.210;27.910;2022-09-27T16:23:04;6.03;;;3.22;;
37367;SDS011;23240;43.210;27.910;2022-09-27T16:25:29;5.32;;;2.97;;
37367;SDS011;23240;43.210;27.910;2022-09-27T16:28:02;7.13;;;3.15;;
37367;SDS011;23240;43.210;27.910;2022-09-27T16:30:28;5.38;;;2.75;;
37367;SDS011;23240;43.210;27.910;2022-09-27T16:32:55;5.93;;;3.25;;
37367;SDS011;23240;43.210;27.910;2022-09-27T16:35:21;9.73;;;3.42;;
37367;SDS011;23240;43.210;27.910;2022-09-27T16:37:47;11.02;;;4.18;;
37367;SDS011;23240;43.210;27.910;2022-09-27T16:40:13;11.02;;;4.72;;
37367;SDS011;23240;43.210;27.910;2022-09-27T16:42:41;10.57;;;4.93;;
37367;SDS011;23240;43.210;27.910;2022-09-27T16:45:08;8.15;;;3.28;;
37367;SDS011;23240;43.210;27.910;2022-09-27T16:47:34;10.98;;;3.33;;
37367;SDS011;23240;43.210;27.910;2022-09-27T16:50:00;7.75;;;3.47;;
37367;SDS011;23240;43.210;27.910;2022-09-27T16:52:45;7.18;;;4.10;;
37367;SDS011;23240;43.210;27.910;2022-09-27T16:55:14;6.03;;;3.47;;
37367;SDS011;23240;43.210;27.910;2022-09-27T16:57:44;4.60;;;2.85;;
37367;SDS011;23240;43.210;27.910;2022-09-27T17:00:14;4.07;;;3.00;;
37367;SDS011;23240;43.210;27.910;2022-09-27T17:02:40;7.30;;;3.58;;
37367;SDS011;23240;43.210;27.910;2022-09-27T17:05:07;6.13;;;3.30;;
37367;SDS011;23240;43.210;27.910;2022-09-27T17:07:33;6.32;;;3.92;;
37367;SDS011;23240;43.210;27.910;2022-09-27T17:09:58;7.68;;;4.15;;
37367;SDS011;23240;43.210;27.910;2022-09-27T17:12:23;5.93;;;3.55;;
37367;SDS011;23240;43.210;27.910;2022-09-27T17:14:49;7.88;;;3.97;;
37367;SDS011;23240;43.210;27.910;2022-09-27T17:17:15;7.65;;;3.53;;
37367;SDS011;23240;43.210;27.910;2022-09-27T17:19:40;10.90;;;3.80;;
37367;SDS011;23240;43.210;27.910;2022-09-27T17:22:06;10.27;;;4.22;;
37367;SDS011;23240;43.210;27.910;2022-09-27T17:24:33;8.32;;;3.90;;
37367;SDS011;23240;43.210;27.910;2022-09-27T17:26:59;9.73;;;3.72;;
37367;SDS011;23240;43.210;27.910;2022-09-27T17:29:24;11.60;;;3.72;;
37367;SDS011;23240;43.210;27.910;2022-09-27T17:31:50;5.47;;;3.30;;
37367;SDS011;23240;43.210;27.910;2022-09-27T17:34:15;9.95;;;4.00;;
37367;SDS011;23240;43.210;27.910;2022-09-27T17:36:42;9.63;;;3.50;;
37367;SDS011;23240;43.210;27.910;2022-09-27T17:39:15;6.85;;;2.92;;
37367;SDS011;23240;43.210;27.910;2022-09-27T17:41:42;3.72;;;2.45;;
37367;SDS011;23240;43.210;27.910;2022-09-27T17:44:12;2.78;;;1.95;;
37367;SDS011;23240;43.210;27.910;2022-09-27T17:46:39;4.72;;;2.70;;
37367;SDS011;23240;43.210;27.910;2022-09-27T17:49:05;4.38;;;2.60;;
37367;SDS011;23240;43.210;27.910;2022-09-27T17:51:50;8.55;;;3.53;;
37367;SDS011;23240;43.210;27.910;2022-09-27T17:54:18;8.40;;;2.40;;
37367;SDS011;23240;43.210;27.910;2022-09-27T17:56:48;3.08;;;2.40;;
37367;SDS011;23240;43.210;27.910;2022-09-27T17:59:14;5.07;;;2.38;;
37367;SDS011;23240;43.210;27.910;2022-09-27T18:01:42;5.05;;;2.80;;
37367;SDS011;23240;43.210;27.910;2022-09-27T18:04:09;2.95;;;2.15;;
37367;SDS011;23240;43.210;27.910;2022-09-27T18:06:37;11.25;;;2.63;;
37367;SDS011;23240;43.210;27.910;2022-09-27T18:09:09;8.82;;;2.70;;
37367;SDS011;23240;43.210;27.910;2022-09-27T18:11:36;3.30;;;2.13;;
37367;SDS011;23240;43.210;27.910;2022-09-27T18:14:03;7.55;;;3.38;;
37367;SDS011;23240;43.210;27.910;2022-09-27T18:16:30;7.03;;;3.25;;